Time;durP1;ratioP1;P1;durP2;ratioP2;P2;SDS_P1;SDS_P2;PMS_P1;PMS_P2;Temp;Humidity;BMP_temperature;BMP_pressure;BME280_temperature;BME280_humidity;BME280_pressure;Samples;Min_cycle;Max_cycle;Signal;HPM_P1;HPM_P2
2021/06/16 00:01:53;;;;;;;3.97;2.17;;;;;;;-144.99;72.13;52199.44;5030758;28;20214;-63
2021/06/16 00:04:23;;;;;;;3.23;1.60;;;;;;;-144.99;72.28;52217.78;5024486;28;20390;-57
2021/06/16 00:06:51;;;;;;;7.20;2.87;;;;;;;-144.99;72.19;52227.97;5022062;28;20313;-58
2021/06/16 00:09:18;;;;;;;5.90;2.53;;;;;;;-144.99;72.42;52227.97;5030156;28;20241;-59
2021/06/16 00:11:44;;;;;;;3.90;2.17;;;;;;;-144.99;72.38;52199.44;5030502;28;20327;-59
2021/06/16 00:14:14;;;;;;;4.93;2.30;;;;;;;-144.99;72.15;52223.88;5030688;28;20202;-59
2021/06/16 00:16:46;;;;;;;6.23;3.00;;;;;;;-144.99;72.08;52232.03;5030137;28;20234;-58
2021/06/16 00:21:48;;;;;;;3.80;2.33;;;;;;;-144.99;72.92;52285.03;5045640;28;20694;-62
2021/06/16 00:24:19;;;;;;;8.67;3.93;;;;;;;-144.99;72.76;52207.59;5049974;28;20232;-62
2021/06/16 00:26:46;;;;;;;4.93;1.63;;;;;;;-144.99;72.81;52236.13;5049813;28;20283;-59
2021/06/16 00:29:15;;;;;;;2.93;1.97;;;;;;;-144.99;72.84;52252.44;5049424;28;20236;-62
2021/06/16 00:31:42;;;;;;;2.80;1.50;;;;;;;-144.99;72.77;52211.66;5049883;28;20213;-60
2021/06/16 00:34:14;;;;;;;2.73;2.37;;;;;;;-144.99;72.44;52256.50;5049858;28;20209;-62
2021/06/16 00:36:42;;;;;;;2.20;1.87;;;;;;;-144.99;72.42;52297.25;5049262;28;20197;-61
2021/06/16 00:39:13;;;;;;;8.00;1.67;;;;;;;-144.99;72.35;52248.34;5049456;28;20221;-61
2021/06/16 00:41:45;;;;;;;2.90;1.27;;;;;;;-144.99;72.59;52256.50;5038607;28;20210;-60
2021/06/16 00:44:14;;;;;;;3.70;1.50;;;;;;;-144.99;73.03;52209.63;5049495;28;20671;-59
2021/06/16 00:46:43;;;;;;;4.57;3.03;;;;;;;-144.99;73.17;52215.75;5049420;28;20240;-59
2021/06/16 00:49:10;;;;;;;5.20;2.57;;;;;;;-144.99;73.43;52227.97;5049653;28;20225;-61
2021/06/16 00:51:42;;;;;;;4.33;2.07;;;;;;;-144.99;73.49;52240.19;5049484;28;20240;-60
2021/06/16 00:54:10;;;;;;;4.83;1.43;;;;;;;-144.99;73.84;52215.75;5049394;28;20228;-60
2021/06/16 00:56:43;;;;;;;1.63;1.37;;;;;;;-144.99;73.70;52227.97;5049549;28;20735;-60
2021/06/16 00:59:12;;;;;;;4.83;2.40;;;;;;;-144.99;73.65;52240.19;5048867;28;20252;-61
2021/06/16 01:01:45;;;;;;;6.73;3.97;;;;;;;-144.99;73.50;52240.19;5049709;28;20229;-60
2021/06/16 01:04:17;;;;;;;4.30;1.80;;;;;;;-144.99;73.42;52219.81;5049296;28;20565;-61
2021/06/16 01:06:48;;;;;;;3.73;3.00;;;;;;;-144.99;73.80;52240.19;5049311;28;20741;-62
2021/06/16 01:09:17;;;;;;;3.40;2.50;;;;;;;-144.99;73.91;52232.03;5048688;28;20233;-61
2021/06/16 01:12:00;;;;;;;5.47;3.07;;;;;;;-144.99;73.95;52215.75;5049111;28;20295;-61
2021/06/16 01:14:33;;;;;;;6.07;2.50;;;;;;;-144.99;74.24;52199.44;5044650;28;20212;-63
2021/06/16 01:17:06;;;;;;;3.67;2.20;;;;;;;-144.99;74.03;52244.28;5042806;28;20256;-61
2021/06/16 01:19:52;;;;;;;2.27;2.07;;;;;;;-144.99;73.59;52248.34;5048981;28;20233;-61
2021/06/16 01:22:35;;;;;;;7.90;2.50;;;;;;;-144.99;73.81;52217.78;5048292;28;20679;-62
2021/06/16 01:25:07;;;;;;;3.53;1.93;;;;;;;-144.99;74.25;52293.19;5048952;28;20209;-60
2021/06/16 01:27:37;;;;;;;3.77;2.20;;;;;;;-144.99;74.48;52236.13;5050131;28;20225;-60
2021/06/16 01:30:08;;;;;;;6.57;5.23;;;;;;;-144.99;74.92;52223.88;5050453;28;20212;-61
2021/06/16 01:32:41;;;;;;;3.83;2.77;;;;;;;-144.99;75.17;52264.66;5051172;28;20618;-60
2021/06/16 01:35:11;;;;;;;9.13;6.20;;;;;;;-144.99;75.07;52219.81;5050115;28;20706;-60
2021/06/16 01:37:47;;;;;;;4.00;2.77;;;;;;;-144.99;74.73;52246.31;5048467;28;20684;-60
2021/06/16 01:40:18;;;;;;;4.77;2.80;;;;;;;-144.99;74.46;52244.28;5048862;28;20220;-61
2021/06/16 01:42:54;;;;;;;4.17;2.60;;;;;;;-144.99;74.46;52250.38;5049422;28;20296;-60
2021/06/16 01:45:24;;;;;;;7.37;2.73;;;;;;;-144.99;74.71;52248.34;5049392;28;20215;-60
2021/06/16 01:47:54;;;;;;;5.00;3.47;;;;;;;-144.99;74.65;52236.13;5048647;28;20229;-63
2021/06/16 01:50:26;;;;;;;4.60;2.87;;;;;;;-144.99;74.56;52244.28;5048252;28;20678;-64
2021/06/16 01:52:59;;;;;;;6.60;2.57;;;;;;;-144.99;74.73;52219.81;5049110;28;20213;-64
2021/06/16 01:55:32;;;;;;;3.73;3.27;;;;;;;-144.99;74.92;52234.09;5048577;28;20233;-65
2021/06/16 01:58:07;;;;;;;6.73;4.13;;;;;;;-144.99;75.26;52219.81;5048647;28;20461;-64
2021/06/16 02:00:35;;;;;;;8.30;2.80;;;;;;;-144.99;75.39;52232.03;5048621;28;20300;-65
2021/06/16 02:03:02;;;;;;;3.57;2.70;;;;;;;-144.99;75.78;52223.88;5048508;28;20209;-64
2021/06/16 02:05:32;;;;;;;7.53;3.20;;;;;;;-144.99;75.92;52260.56;5041831;28;20218;-64
2021/06/16 02:08:05;;;;;;;5.50;3.53;;;;;;;-144.99;76.02;52248.34;5041829;28;20719;-65
2021/06/16 02:10:38;;;;;;;4.87;3.17;;;;;;;-144.99;75.56;52199.44;5048473;28;20214;-60
2021/06/16 02:13:09;;;;;;;4.50;3.03;;;;;;;-144.99;75.56;52227.97;5048633;28;20216;-61
2021/06/16 02:15:43;;;;;;;7.50;3.10;;;;;;;-144.99;75.86;52236.13;5047776;28;20214;-60
2021/06/16 02:18:10;;;;;;;3.73;3.07;;;;;;;-144.99;76.12;52252.44;5048168;28;20228;-61
2021/06/16 02:20:42;;;;;;;7.87;3.50;;;;;;;-144.99;76.25;52248.34;5048075;28;20221;-60
2021/06/16 02:23:09;;;;;;;5.50;2.90;;;;;;;-144.99;76.22;52248.34;5048745;28;20213;-61
2021/06/16 02:25:36;;;;;;;9.17;3.63;;;;;;;-144.99;76.77;52232.03;5048387;28;20206;-61
2021/06/16 02:28:10;;;;;;;6.47;4.00;;;;;;;-144.99;76.87;52227.97;5048155;28;20236;-60
2021/06/16 02:33:20;;;;;;;6.37;5.50;;;;;;;-144.99;76.35;52240.19;5049220;28;20278;-61
2021/06/16 02:35:49;;;;;;;6.43;3.43;;;;;;;-144.99;76.20;52244.28;5051550;28;20670;-61
2021/06/16 02:38:22;;;;;;;7.43;3.83;;;;;;;-144.99;76.04;52240.19;5044068;28;20226;-60
2021/06/16 02:40:52;;;;;;;4.40;3.13;;;;;;;-144.99;75.88;52266.69;5051901;28;20209;-62
2021/06/16 02:43:22;;;;;;;7.10;2.83;;;;;;;-144.99;75.77;52254.47;5053267;28;20681;-61
2021/06/16 02:45:53;;;;;;;7.70;3.10;;;;;;;-144.99;75.82;52248.34;5053426;28;20217;-61
2021/06/16 02:48:21;;;;;;;4.50;3.43;;;;;;;-144.99;76.12;52207.59;5051687;28;20237;-61
2021/06/16 02:50:55;;;;;;;8.97;3.50;;;;;;;-144.99;76.82;52234.09;5051894;28;20216;-60
2021/06/16 02:53:24;;;;;;;4.73;3.13;;;;;;;-144.99;77.48;52232.03;5052341;28;20216;-59
2021/06/16 02:55:54;;;;;;;4.07;2.60;;;;;;;-144.99;77.19;52183.13;5051710;28;20213;-59
2021/06/16 02:58:26;;;;;;;5.33;3.47;;;;;;;-144.99;77.42;52244.28;5051773;28;20332;-60
2021/06/16 03:00:57;;;;;;;4.77;2.73;;;;;;;-144.99;77.31;52219.81;5051235;28;20217;-60
2021/06/16 03:03:27;;;;;;;4.07;2.60;;;;;;;-144.99;76.97;52244.28;5051561;28;20691;-61
2021/06/16 03:05:58;;;;;;;5.77;2.57;;;;;;;-144.99;76.69;52203.50;5051663;28;20216;-61
2021/06/16 03:08:27;;;;;;;7.43;2.77;;;;;;;-144.99;76.51;52211.66;5051240;28;20233;-61
2021/06/16 03:10:55;;;;;;;6.47;3.13;;;;;;;-144.99;76.40;52236.13;5051292;28;20213;-60
2021/06/16 03:13:30;;;;;;;4.47;2.63;;;;;;;-144.99;76.13;52248.34;5051463;28;20212;-60
2021/06/16 03:15:58;;;;;;;4.10;2.70;;;;;;;-144.99;75.97;52250.38;5046432;28;20212;-61
2021/06/16 03:18:29;;;;;;;6.13;2.43;;;;;;;-144.99;76.01;52240.19;5050665;28;20709;-62
2021/06/16 03:20:58;;;;;;;4.00;2.47;;;;;;;-144.99;76.15;52215.75;5051023;28;20221;-63
2021/06/16 03:23:26;;;;;;;8.63;2.53;;;;;;;-144.99;76.13;52232.03;5051621;28;20212;-63
2021/06/16 03:25:54;;;;;;;4.83;3.10;;;;;;;-144.99;75.97;52260.56;5051268;28;20209;-64
2021/06/16 03:28:27;;;;;;;8.20;3.27;;;;;;;-144.99;76.28;52264.66;5050748;28;20621;-63
2021/06/16 03:30:57;;;;;;;7.00;3.53;;;;;;;-144.99;76.48;52276.88;5043989;28;20217;-64
2021/06/16 03:33:25;;;;;;;7.77;2.80;;;;;;;-144.99;76.51;52256.50;5051279;28;20220;-63
2021/06/16 03:35:52;;;;;;;8.63;3.23;;;;;;;-144.99;76.57;52260.56;5051886;28;20216;-62
2021/06/16 03:38:19;;;;;;;4.83;3.47;;;;;;;-144.99;76.86;52215.75;5052467;28;20237;-65
2021/06/16 03:40:49;;;;;;;6.13;3.83;;;;;;;-144.99;76.82;52221.84;5051800;28;20600;-67
2021/06/16 03:43:17;;;;;;;7.70;5.50;;;;;;;-144.99;76.77;52244.28;5053876;28;20218;-66
2021/06/16 03:45:50;;;;;;;10.07;5.17;;;;;;;-144.99;76.71;52213.69;5050799;28;20210;-65
2021/06/16 03:48:26;;;;;;;5.97;4.13;;;;;;;-144.99;77.02;52207.59;5050568;28;20348;-66
2021/06/16 03:50:57;;;;;;;6.10;4.77;;;;;;;-144.99;77.16;52264.66;5051109;28;20212;-65
2021/06/16 03:53:28;;;;;;;7.47;4.03;;;;;;;-144.99;77.30;52244.28;5051137;28;20221;-66
2021/06/16 03:56:00;;;;;;;7.67;3.90;;;;;;;-144.99;77.23;52236.13;5050769;28;20206;-66
2021/06/16 03:58:27;;;;;;;4.17;3.50;;;;;;;-144.99;77.17;52227.97;5050383;28;20312;-65
2021/06/16 04:00:58;;;;;;;7.80;3.73;;;;;;;-144.99;76.91;52227.97;5050008;28;20220;-65
2021/06/16 04:03:26;;;;;;;6.77;3.27;;;;;;;-144.99;76.69;52236.13;5047212;28;20218;-61
2021/06/16 04:05:55;;;;;;;6.17;2.90;;;;;;;-144.99;76.47;52172.94;5040185;28;20585;-60
2021/06/16 04:08:27;;;;;;;6.77;3.87;;;;;;;-144.99;76.10;52240.19;5049857;28;20230;-61
2021/06/16 04:10:54;;;;;;;7.30;3.20;;;;;;;-144.99;76.05;52211.66;5050391;28;20221;-61
2021/06/16 04:13:27;;;;;;;7.20;3.80;;;;;;;-144.99;75.99;52232.03;5050434;28;20205;-62
2021/06/16 04:15:54;;;;;;;7.47;3.73;;;;;;;-144.99;75.98;52199.44;5050236;28;20217;-65
2021/06/16 04:18:24;;;;;;;5.43;3.30;;;;;;;-144.99;76.18;52232.03;5049933;28;20228;-60
2021/06/16 04:20:51;;;;;;;9.07;3.67;;;;;;;-144.99;77.44;52203.50;5049546;28;20662;-61
2021/06/16 04:23:17;;;;;;;6.67;3.40;;;;;;;-144.99;78.18;52242.22;5049969;28;20218;-60
2021/06/16 04:25:44;;;;;;;7.93;3.33;;;;;;;-144.99;78.49;52183.13;5050205;28;20635;-61
2021/06/16 04:28:11;;;;;;;6.17;3.40;;;;;;;-144.99;78.40;52244.28;5049534;28;20272;-61
2021/06/16 04:30:37;;;;;;;8.50;4.20;;;;;;;-144.99;78.73;52201.47;5049639;28;20527;-59
2021/06/16 04:33:10;;;;;;;7.80;3.47;;;;;;;-144.99;78.31;52199.44;5049823;28;20257;-60
2021/06/16 04:35:41;;;;;;;4.87;3.03;;;;;;;-144.99;78.82;52244.28;5049624;28;20440;-61
2021/06/16 04:38:13;;;;;;;4.67;3.10;;;;;;;-144.99;78.91;52215.75;5040809;28;20594;-61
2021/06/16 04:40:42;;;;;;;9.13;5.27;;;;;;;-144.99;78.37;52199.44;5046638;28;20205;-60
2021/06/16 04:43:08;;;;;;;4.33;2.70;;;;;;;-144.99;77.98;52195.34;5049821;28;20225;-64
2021/06/16 04:45:38;;;;;;;6.73;3.30;;;;;;;-144.99;77.59;52227.97;5049944;28;20209;-72
2021/06/16 04:48:05;;;;;;;12.03;2.93;;;;;;;-144.99;77.74;52166.81;5048983;28;20647;-68
2021/06/16 04:50:38;;;;;;;7.83;2.57;;;;;;;-144.99;77.16;52219.81;5049916;28;20217;-71
2021/06/16 04:53:06;;;;;;;5.63;3.50;;;;;;;-144.99;76.47;52199.44;5049292;28;20209;-70
2021/06/16 04:55:33;;;;;;;5.17;2.60;;;;;;;-144.99;75.98;52244.28;5049064;28;20205;-68
2021/06/16 04:58:17;;;;;;;4.30;3.10;;;;;;;-144.99;75.78;52170.91;4969864;28;10000930;-71
2021/06/16 05:00:47;;;;;;;6.67;2.83;;;;;;;-144.99;75.25;52191.28;4699318;28;10000459;-72
2021/06/16 05:03:16;;;;;;;8.23;3.87;;;;;;;-144.99;74.57;52232.03;5047186;28;20230;-70
2021/06/16 05:05:46;;;;;;;4.73;2.33;;;;;;;-144.99;74.26;52211.66;5046163;28;20203;-69
2021/06/16 05:08:14;;;;;;;6.07;3.00;;;;;;;-144.99;73.52;52195.34;5046067;28;20234;-70
2021/06/16 05:10:46;;;;;;;5.00;3.37;;;;;;;-144.99;73.64;52170.91;5047017;28;20218;-69
2021/06/16 05:13:15;;;;;;;11.00;5.67;;;;;;;-144.99;73.46;52183.13;5047297;28;20214;-69
2021/06/16 05:15:47;;;;;;;9.87;3.27;;;;;;;-144.99;73.15;52209.63;5039747;28;20689;-70
2021/06/16 05:18:14;;;;;;;5.43;3.40;;;;;;;-144.99;73.36;52183.13;5028345;28;20646;-69
2021/06/16 05:20:40;;;;;;;7.50;3.50;;;;;;;-144.99;73.63;52191.28;5046612;28;20221;-69
2021/06/16 05:23:07;;;;;;;7.43;3.77;;;;;;;-144.99;73.18;52162.75;5046736;28;20214;-70
2021/06/16 05:25:35;;;;;;;8.87;3.40;;;;;;;-144.99;73.19;52179.06;5046808;28;20687;-69
2021/06/16 05:28:08;;;;;;;6.80;3.27;;;;;;;-144.99;72.72;52195.34;5046439;28;20643;-69
2021/06/16 05:30:37;;;;;;;7.30;3.53;;;;;;;-144.99;72.85;52162.75;5046608;28;20688;-71
2021/06/16 05:33:07;;;;;;;12.83;4.93;;;;;;;-144.99;72.74;52201.47;5047345;28;20207;-68
2021/06/16 05:35:36;;;;;;;5.47;3.63;;;;;;;-144.99;72.70;52183.13;5046560;28;20246;-69
2021/06/16 05:38:03;;;;;;;8.87;3.97;;;;;;;-144.99;72.63;52174.97;5046456;28;20231;-69
2021/06/16 05:40:37;;;;;;;6.60;3.00;;;;;;;-144.99;72.40;52158.66;5046138;28;20208;-69
2021/06/16 05:43:10;;;;;;;12.77;4.83;;;;;;;-144.99;72.18;52195.34;5046291;28;20298;-70
2021/06/16 05:45:37;;;;;;;9.27;3.20;;;;;;;-144.99;71.97;52203.50;5046881;28;20619;-70
2021/06/16 05:48:03;;;;;;;6.30;3.57;;;;;;;-144.99;71.89;52195.34;5049118;28;20233;-69
2021/06/16 05:50:33;;;;;;;12.13;6.77;;;;;;;-144.99;72.26;52199.44;5047083;28;20216;-70
2021/06/16 05:52:59;;;;;;;33.73;6.83;;;;;;;-144.99;71.64;52183.13;5047295;28;20252;-70
2021/06/16 05:55:31;;;;;;;4.70;3.17;;;;;;;-144.99;71.62;52174.97;5046590;28;20209;-68
2021/06/16 05:58:05;;;;;;;7.10;3.70;;;;;;;-144.99;71.57;52183.13;5046348;28;20237;-68
2021/06/16 06:00:32;;;;;;;5.60;2.97;;;;;;;-144.99;71.49;52170.91;5046193;28;20392;-69
2021/06/16 06:03:02;;;;;;;12.13;3.87;;;;;;;-144.99;71.02;52128.09;5046467;28;20216;-68
2021/06/16 06:05:31;;;;;;;14.67;8.70;;;;;;;-144.99;71.20;52179.06;5034577;28;20202;-68
2021/06/16 06:07:57;;;;;;;6.50;3.23;;;;;;;-144.99;70.67;52181.09;5040420;28;20327;-67
2021/06/16 06:10:27;;;;;;;6.37;2.87;;;;;;;-144.99;70.16;52170.91;5049665;28;20221;-70
2021/06/16 06:12:57;;;;;;;8.60;2.77;;;;;;;-144.99;70.64;52162.75;5050186;28;20221;-65
2021/06/16 06:15:32;;;;;;;10.10;5.47;;;;;;;-144.99;68.30;52197.41;5050111;28;20224;-65
2021/06/16 06:18:00;;;;;;;5.60;3.00;;;;;;;-144.99;67.90;52093.44;5049840;28;20221;-63
2021/06/16 06:20:27;;;;;;;9.70;3.50;;;;;;;-144.99;67.81;52107.72;5049453;28;20217;-64
2021/06/16 06:22:56;;;;;;;3.97;2.33;;;;;;;-144.99;67.16;52158.66;5049972;28;20316;-64
2021/06/16 06:25:26;;;;;;;4.30;3.20;;;;;;;-144.99;66.68;52166.81;5049881;28;20388;-65
2021/06/16 06:27:55;;;;;;;7.57;2.53;;;;;;;-144.99;66.75;52150.53;5049292;28;20229;-64
2021/06/16 06:30:22;;;;;;;8.90;4.80;;;;;;;-144.99;65.88;52170.91;5049776;28;20666;-65
2021/06/16 06:32:50;;;;;;;11.53;3.07;;;;;;;-144.99;65.41;52170.91;5049516;28;20218;-63
2021/06/16 06:35:19;;;;;;;9.50;3.77;;;;;;;-144.99;65.17;52154.59;5049065;28;20217;-66
2021/06/16 06:37:46;;;;;;;8.27;3.43;;;;;;;-144.99;64.53;52150.53;5043455;28;20222;-65
2021/06/16 06:40:13;;;;;;;7.43;2.23;;;;;;;-144.99;63.28;52162.75;5038414;28;20209;-64
2021/06/16 06:42:46;;;;;;;5.60;3.53;;;;;;;-144.99;63.19;52170.91;5048998;28;20734;-63
2021/06/16 06:45:13;;;;;;;8.73;2.77;;;;;;;-144.99;62.92;52115.88;5049502;28;20223;-64
2021/06/16 06:47:42;;;;;;;6.67;2.90;;;;;;;-144.99;61.93;52152.56;5048372;28;20675;-64
2021/06/16 06:50:16;;;;;;;4.77;2.70;;;;;;;-144.99;61.58;52154.59;5049471;28;20221;-64
2021/06/16 06:52:48;;;;;;;10.30;2.10;;;;;;;-144.99;59.34;52130.13;5049401;28;20211;-63
2021/06/16 06:55:19;;;;;;;6.93;1.77;;;;;;;-144.99;59.46;52158.66;5049076;28;20224;-63
2021/06/16 06:57:51;;;;;;;9.10;2.17;;;;;;;-144.99;58.84;52101.59;5048688;28;20608;-64
2021/06/16 07:00:19;;;;;;;4.93;2.30;;;;;;;-144.99;58.31;52142.38;5049177;28;20221;-65
2021/06/16 07:02:47;;;;;;;7.03;1.93;;;;;;;-144.99;58.05;52146.44;5049384;28;20218;-64
2021/06/16 07:05:18;;;;;;;6.43;1.90;;;;;;;-144.99;57.70;52113.84;5048856;28;20265;-63
2021/06/16 07:07:51;;;;;;;7.10;2.03;;;;;;;-144.99;55.85;52077.16;5048541;28;20238;-64
2021/06/16 07:10:20;;;;;;;7.53;1.90;;;;;;;-144.99;54.11;52164.78;5048562;28;20696;-63
2021/06/16 07:12:50;;;;;;;4.77;1.87;;;;;;;-144.99;53.70;52138.28;5048813;28;20224;-63
2021/06/16 07:15:17;;;;;;;5.53;2.33;;;;;;;-144.99;53.73;52146.44;5044599;28;20211;-64
2021/06/16 07:17:44;;;;;;;12.27;1.97;;;;;;;-144.99;53.27;52154.59;5044179;28;20284;-64
2021/06/16 07:20:16;;;;;;;2.77;1.23;;;;;;;-144.99;53.18;52111.78;5047869;28;20231;-64
2021/06/16 07:22:45;;;;;;;2.90;1.53;;;;;;;-144.99;53.24;52130.13;5048483;28;20388;-65
2021/06/16 07:25:18;;;;;;;4.30;1.33;;;;;;;-144.99;52.29;52111.78;5048259;28;20224;-64
2021/06/16 07:27:47;;;;;;;5.30;2.00;;;;;;;-144.99;52.42;52172.94;5047761;28;20758;-64
2021/06/16 07:30:15;;;;;;;6.20;1.50;;;;;;;-144.99;52.46;52113.84;5048715;28;20210;-64
2021/06/16 07:32:42;;;;;;;10.63;2.23;;;;;;;-144.99;52.44;52138.28;5048359;28;20221;-63
2021/06/16 07:35:14;;;;;;;4.90;1.87;;;;;;;-144.99;51.43;52146.44;5048324;28;20219;-64
2021/06/16 07:37:45;;;;;;;7.13;1.87;;;;;;;-144.99;52.20;52083.25;5047600;28;20665;-65
2021/06/16 07:40:12;;;;;;;4.20;1.30;;;;;;;-144.99;51.92;52101.59;5047993;28;20308;-63
2021/06/16 07:42:40;;;;;;;5.83;1.63;;;;;;;-144.99;50.63;52105.69;5048074;28;20239;-64
2021/06/16 07:45:09;;;;;;;5.93;2.23;;;;;;;-144.99;50.71;52121.97;5048422;28;20213;-64
2021/06/16 07:47:39;;;;;;;7.03;1.60;;;;;;;-144.99;50.72;52121.97;5047291;28;20212;-64
2021/06/16 07:50:12;;;;;;;4.63;1.60;;;;;;;-144.99;50.02;52160.72;5047778;28;20600;-64
2021/06/16 07:52:39;;;;;;;6.33;2.17;;;;;;;-144.99;49.31;52119.94;5047688;28;20242;-64
2021/06/16 07:55:09;;;;;;;3.90;1.67;;;;;;;-144.99;50.17;52154.59;5048063;28;20213;-65
2021/06/16 07:57:35;;;;;;;4.47;1.50;;;;;;;-144.99;49.34;52097.53;5047948;28;20224;-65
2021/06/16 08:00:02;;;;;;;6.93;1.77;;;;;;;-144.99;48.25;52130.13;5047744;28;20218;-64
2021/06/16 08:02:30;;;;;;;6.53;1.80;;;;;;;-144.99;47.72;52105.69;5048055;28;20216;-63
2021/06/16 08:04:57;;;;;;;1.90;1.17;;;;;;;-144.99;48.34;52124.03;5036506;28;20209;-64
2021/06/16 08:07:27;;;;;;;9.33;1.90;;;;;;;-144.99;47.99;52152.56;5042569;28;20225;-64
2021/06/16 08:09:54;;;;;;;8.43;2.07;;;;;;;-144.99;47.93;52117.91;5047416;28;20470;-64
2021/06/16 08:12:22;;;;;;;4.90;2.27;;;;;;;-144.99;48.08;52117.91;5047890;28;20217;-64
2021/06/16 08:14:49;;;;;;;11.73;1.70;;;;;;;-144.99;48.59;52130.13;5049874;28;20252;-64
2021/06/16 08:17:18;;;;;;;5.20;1.77;;;;;;;-144.99;48.19;52101.59;5047970;28;20208;-63
2021/06/16 08:19:45;;;;;;;3.83;1.60;;;;;;;-144.99;47.21;52097.53;5048447;28;20333;-65
2021/06/16 08:22:14;;;;;;;3.53;1.30;;;;;;;-144.99;47.50;52134.22;5047500;28;20217;-65
2021/06/16 08:24:44;;;;;;;5.50;2.67;;;;;;;-144.99;47.39;52105.69;5047653;28;20217;-63
2021/06/16 08:27:11;;;;;;;4.50;2.03;;;;;;;-144.99;45.95;52073.06;5047520;28;20553;-63
2021/06/16 08:29:42;;;;;;;3.13;1.20;;;;;;;-144.99;46.48;52085.31;5046984;28;20705;-64
2021/06/16 08:32:12;;;;;;;5.27;1.37;;;;;;;-144.99;46.79;52121.97;5045970;28;20211;-63
2021/06/16 08:34:44;;;;;;;8.47;2.67;;;;;;;-144.99;45.95;52142.38;5047726;28;20211;-65
2021/06/16 08:37:16;;;;;;;6.17;1.73;;;;;;;-144.99;45.71;52113.84;5044265;28;20242;-65
2021/06/16 08:39:43;;;;;;;6.53;1.40;;;;;;;-144.99;46.08;52085.31;5038902;28;20625;-64
2021/06/16 08:42:12;;;;;;;6.40;2.03;;;;;;;-144.99;45.54;52093.44;5047566;28;20220;-64
2021/06/16 08:44:46;;;;;;;7.20;2.20;;;;;;;-144.99;44.38;52097.53;5047297;28;20242;-64
2021/06/16 08:47:13;;;;;;;6.40;2.80;;;;;;;-144.99;45.03;52117.91;5046670;28;20213;-64
2021/06/16 08:49:42;;;;;;;3.27;1.53;;;;;;;-144.99;45.10;52089.38;5046520;28;20238;-64
2021/06/16 08:52:09;;;;;;;2.27;1.07;;;;;;;-144.99;43.91;52107.72;5046676;28;20221;-64
2021/06/16 08:54:36;;;;;;;8.77;1.90;;;;;;;-144.99;44.39;52113.84;5046795;28;20224;-64
2021/06/16 08:57:04;;;;;;;8.10;2.07;;;;;;;-144.99;43.48;52093.44;5046513;28;20222;-65
2021/06/16 08:59:36;;;;;;;3.73;1.60;;;;;;;-144.99;43.87;52117.91;5046334;28;20228;-64
2021/06/16 09:02:05;;;;;;;6.73;1.70;;;;;;;-144.99;44.15;52101.59;5046938;28;20223;-64
2021/06/16 09:04:49;;;;;;;11.47;3.70;;;;;;;-144.99;43.37;52081.22;5046480;28;20201;-65
2021/06/16 09:07:17;;;;;;;8.07;2.10;;;;;;;-144.99;43.50;52101.59;5046708;28;20208;-65
2021/06/16 09:09:45;;;;;;;7.07;1.53;;;;;;;-144.99;42.70;52048.63;5047135;28;20728;-64
2021/06/16 09:12:30;;;;;;;5.57;1.50;;;;;;;-144.99;43.15;52119.94;5046908;28;20228;-65
2021/06/16 09:14:59;;;;;;;4.33;1.80;;;;;;;-144.99;42.53;52121.97;5042357;28;20208;-64
2021/06/16 09:18:02;;;;;;;8.13;2.30;;;;;;;-144.99;42.14;52099.56;5040723;28;20227;-65
2021/06/16 09:20:30;;;;;;;10.00;2.07;;;;;;;-144.99;42.30;52089.38;5046187;28;20593;-65
2021/06/16 09:23:14;;;;;;;5.13;2.00;;;;;;;-144.99;41.90;52109.75;5048488;28;20220;-64
2021/06/16 09:25:44;;;;;;;6.17;1.90;;;;;;;-144.99;42.11;52097.53;5049581;28;20573;-66
2021/06/16 09:28:11;;;;;;;6.07;2.83;;;;;;;-144.99;41.25;52052.69;5046030;28;20221;-65
2021/06/16 09:30:45;;;;;;;7.87;1.63;;;;;;;-144.99;41.03;52109.75;5046222;28;20233;-66
2021/06/16 09:33:22;;;;;;;5.80;1.07;;;;;;;-144.99;41.31;52095.50;5047193;28;20209;-65
2021/06/16 09:35:52;;;;;;;4.47;1.63;;;;;;;-144.99;41.50;52048.63;5046889;28;20223;-66
2021/06/16 09:38:26;;;;;;;6.67;1.80;;;;;;;-144.99;41.09;52060.84;5046130;28;20731;-64
2021/06/16 09:40:59;;;;;;;11.50;3.07;;;;;;;-144.99;41.19;52036.38;5046291;28;20223;-65
2021/06/16 09:43:38;;;;;;;4.30;1.70;;;;;;;-144.99;41.68;52077.16;5049075;28;20322;-65
2021/06/16 09:46:09;;;;;;;4.73;1.47;;;;;;;-144.99;41.53;52054.72;5049947;28;20217;-65
2021/06/16 09:48:39;;;;;;;7.57;1.93;;;;;;;-144.99;41.34;52026.19;5049799;28;20233;-64
2021/06/16 09:51:23;;;;;;;11.67;2.63;;;;;;;-144.99;40.94;52036.38;5050187;28;20236;-65
2021/06/16 09:54:02;;;;;;;7.20;4.07;;;;;;;-144.99;40.92;52034.34;5050460;28;20672;-65
2021/06/16 09:59:33;;;;;;;5.03;2.27;;;;;;;-144.99;41.12;52052.69;5051098;28;20288;-66
2021/06/16 10:02:03;;;;;;;9.20;2.53;;;;;;;-144.99;41.62;52048.63;5053182;28;20223;-66
2021/06/16 10:04:35;;;;;;;11.73;2.33;;;;;;;-144.99;41.74;52028.22;5046297;28;20203;-66
2021/06/16 10:07:18;;;;;;;8.60;4.50;;;;;;;-144.99;41.82;52032.31;5050856;28;20199;-65
2021/06/16 10:09:56;;;;;;;12.47;3.30;;;;;;;-144.99;40.97;51995.63;5039765;28;20714;-64
2021/06/16 10:12:24;;;;;;;7.40;2.27;;;;;;;-144.99;41.40;52028.22;5051537;28;20226;-65
2021/06/16 10:14:52;;;;;;;6.27;1.73;;;;;;;-144.99;40.40;52044.53;5051395;28;20378;-65
2021/06/16 10:17:23;;;;;;;9.60;2.23;;;;;;;-144.99;40.89;52040.47;5051555;28;20591;-65
2021/06/16 10:19:58;;;;;;;5.13;2.23;;;;;;;-144.99;41.11;52042.50;5052819;28;20592;-65
2021/06/16 10:22:27;;;;;;;3.47;2.00;;;;;;;-144.99;41.24;52036.38;5050873;28;20214;-65
2021/06/16 10:24:54;;;;;;;3.70;2.00;;;;;;;-144.99;41.43;51967.09;5049232;28;20683;-64
2021/06/16 10:27:30;;;;;;;8.20;2.13;;;;;;;-144.99;40.63;52007.84;5049538;28;20223;-66
2021/06/16 10:30:03;;;;;;;4.00;1.57;;;;;;;-144.99;40.56;51983.41;5042725;28;20224;-65
2021/06/16 10:32:42;;;;;;;7.87;1.70;;;;;;;-144.99;40.77;51995.63;5036388;28;20222;-64
2021/06/16 10:35:14;;;;;;;4.43;1.80;;;;;;;-144.99;41.67;52016.00;5048932;28;20586;-65
2021/06/16 10:37:42;;;;;;;6.50;2.50;;;;;;;-144.99;41.02;52028.22;5049697;28;20298;-65
2021/06/16 10:40:46;;;;;;;4.60;1.63;;;;;;;-144.99;41.11;52003.78;5046676;28;20287;-65
2021/06/16 10:43:31;;;;;;;5.70;1.40;;;;;;;-144.99;41.00;52016.00;5049493;28;20307;-65
2021/06/16 10:46:20;;;;;;;2.47;1.20;;;;;;;-144.99;41.69;52007.84;5049321;28;20220;-66
2021/06/16 10:49:01;;;;;;;4.23;1.60;;;;;;;-144.99;39.87;52005.81;5049250;28;20240;-66
2021/06/16 10:51:43;;;;;;;5.10;1.90;;;;;;;-144.99;39.88;51979.31;5049010;28;20208;-65
2021/06/16 10:54:22;;;;;;;6.03;2.37;;;;;;;-144.99;39.46;51950.78;5048075;28;20252;-66
2021/06/16 10:56:54;;;;;;;4.97;1.83;;;;;;;-144.99;39.10;51995.63;5048873;28;20669;-64
2021/06/16 11:00:00;;;;;;;5.40;1.57;;;;;;;-144.99;38.66;51991.56;5049075;28;20270;-66
2021/06/16 11:03:02;;;;;;;3.97;1.53;;;;;;;-144.99;38.12;51960.97;5042783;28;20217;-65
2021/06/16 11:05:47;;;;;;;7.47;2.30;;;;;;;-144.99;38.36;51958.94;5044400;28;20727;-64
2021/06/16 11:08:55;;;;;;;5.47;1.57;;;;;;;-144.99;38.44;51963.03;5047892;28;20240;-65
2021/06/16 11:11:24;;;;;;;5.97;1.30;;;;;;;-144.99;38.38;51954.88;5047763;28;20299;-67
2021/06/16 11:13:56;;;;;;;5.13;2.10;;;;;;;-144.99;38.24;51960.97;5048953;28;20480;-67
2021/06/16 11:16:53;;;;;;;7.67;2.20;;;;;;;-144.99;37.99;51956.91;5039132;28;20246;-70
2021/06/16 11:19:44;;;;;;;8.67;1.70;;;;;;;-144.99;38.75;51983.41;5044179;28;20721;-66
2021/06/16 11:22:42;;;;;;;4.67;2.40;;;;;;;-144.99;39.51;51954.88;5041799;28;20217;-68
2021/06/16 11:25:24;;;;;;;3.40;2.10;;;;;;;-144.99;38.93;51971.16;5049451;28;20242;-70
2021/06/16 11:28:11;;;;;;;3.93;1.73;;;;;;;-144.99;39.04;51963.03;5048326;28;20486;-70
2021/06/16 11:30:44;;;;;;;4.27;1.83;;;;;;;-144.99;39.34;51987.47;5048340;28;20276;-68
2021/06/16 11:33:32;;;;;;;6.23;2.27;;;;;;;-144.99;39.30;51946.72;5048315;28;20299;-68
2021/06/16 11:36:00;;;;;;;5.03;1.90;;;;;;;-144.99;39.38;52003.78;5048535;28;20219;-67
2021/06/16 11:38:31;;;;;;;3.23;1.70;;;;;;;-144.99;39.10;51975.25;5048166;28;20586;-71
2021/06/16 11:40:59;;;;;;;6.60;2.10;;;;;;;-144.99;39.21;51987.47;5048987;28;20220;-69
2021/06/16 11:43:37;;;;;;;5.80;1.97;;;;;;;-144.99;38.68;51983.41;5048412;28;20223;-68
2021/06/16 11:46:05;;;;;;;3.70;2.20;;;;;;;-144.99;38.68;51963.03;5048836;28;20218;-69